sensor_id;sensor_type;location;lat;lon;timestamp;P1;P2;P0
62547;PMS7003;48602;45.192;5.722;2022-08-01T00:00:28;5.75;5.25;5.25
62547;PMS7003;48602;45.192;5.722;2022-08-01T00:02:53;5.50;4.25;3.75
62547;PMS7003;48602;45.192;5.722;2022-08-01T00:05:18;6.00;6.00;5.50
62547;PMS7003;48602;45.192;5.722;2022-08-01T00:07:44;4.50;4.50;4.00
62547;PMS7003;48602;45.192;5.722;2022-08-01T00:10:12;3.50;3.50;2.25
62547;PMS7003;48602;45.192;5.722;2022-08-01T00:12:39;6.00;6.00;5.75
62547;PMS7003;48602;45.192;5.722;2022-08-01T00:15:07;6.00;6.00;5.25
62547;PMS7003;48602;45.192;5.722;2022-08-01T00:17:34;7.25;7.25;6.50
62547;PMS7003;48602;45.192;5.722;2022-08-01T00:19:59;5.75;5.75;4.75
62547;PMS7003;48602;45.192;5.722;2022-08-01T00:22:25;5.25;5.25;5.00
62547;PMS7003;48602;45.192;5.722;2022-08-01T00:24:50;6.00;6.00;6.00
62547;PMS7003;48602;45.192;5.722;2022-08-01T00:27:16;5.75;5.75;5.25
62547;PMS7003;48602;45.192;5.722;2022-08-01T00:29:41;6.00;6.00;6.00
62547;PMS7003;48602;45.192;5.722;2022-08-01T00:32:07;6.50;6.50;5.50
62547;PMS7003;48602;45.192;5.722;2022-08-01T00:34:32;6.75;6.75;6.00
62547;PMS7003;48602;45.192;5.722;2022-08-01T00:36:58;8.00;7.50;7.00
62547;PMS7003;48602;45.192;5.722;2022-08-01T00:39:23;7.50;6.75;6.00
62547;PMS7003;48602;45.192;5.722;2022-08-01T00:41:49;7.00;6.25;5.00
62547;PMS7003;48602;45.192;5.722;2022-08-01T00:44:14;7.00;7.00;6.25
62547;PMS7003;48602;45.192;5.722;2022-08-01T00:46:40;5.50;5.50;5.50
62547;PMS7003;48602;45.192;5.722;2022-08-01T00:49:05;5.00;4.25;4.25
62547;PMS7003;48602;45.192;5.722;2022-08-01T00:51:30;9.00;9.00;8.00
62547;PMS7003;48602;45.192;5.722;2022-08-01T00:53:56;7.25;6.75;6.50
62547;PMS7003;48602;45.192;5.722;2022-08-01T00:56:23;7.00;6.50;6.00
62547;PMS7003;48602;45.192;5.722;2022-08-01T00:58:50;6.25;6.25;6.00
62547;PMS7003;48602;45.192;5.722;2022-08-01T01:01:17;7.25;7.00;6.00
62547;PMS7003;48602;45.192;5.722;2022-08-01T01:03:45;8.00;7.50;7.00
62547;PMS7003;48602;45.192;5.722;2022-08-01T01:08:55;8.25;6.50;5.50
62547;PMS7003;48602;45.192;5.722;2022-08-01T01:11:34;7.00;7.00;6.75
62547;PMS7003;48602;45.192;5.722;2022-08-01T01:14:10;7.75;7.75;7.00
62547;PMS7003;48602;45.192;5.722;2022-08-01T01:16:47;8.75;8.00;7.00
62547;PMS7003;48602;45.192;5.722;2022-08-01T01:19:16;6.50;6.50;6.00
62547;PMS7003;48602;45.192;5.722;2022-08-01T01:25:04;6.00;6.00;6.00
62547;PMS7003;48602;45.192;5.722;2022-08-01T01:27:58;7.00;7.00;6.25
62547;PMS7003;48602;45.192;5.722;2022-08-01T01:30:30;8.25;7.25;6.25
62547;PMS7003;48602;45.192;5.722;2022-08-01T01:32:58;9.00;7.00;6.75
62547;PMS7003;48602;45.192;5.722;2022-08-01T01:35:28;6.00;6.00;6.00
62547;PMS7003;48602;45.192;5.722;2022-08-01T01:38:01;7.25;6.00;6.00
62547;PMS7003;48602;45.192;5.722;2022-08-01T01:40:32;6.50;5.75;5.75
62547;PMS7003;48602;45.192;5.722;2022-08-01T01:42:59;7.00;7.00;6.75
62547;PMS7003;48602;45.192;5.722;2022-08-01T01:45:25;2.50;2.00;2.00
62547;PMS7003;48602;45.192;5.722;2022-08-01T01:47:51;7.00;7.00;6.50
62547;PMS7003;48602;45.192;5.722;2022-08-01T01:50:19;7.75;6.75;6.25
62547;PMS7003;48602;45.192;5.722;2022-08-01T01:52:47;7.25;7.25;7.00
62547;PMS7003;48602;45.192;5.722;2022-08-01T01:55:13;7.75;7.75;6.75
62547;PMS7003;48602;45.192;5.722;2022-08-01T01:57:41;7.50;6.50;6.25
62547;PMS7003;48602;45.192;5.722;2022-08-01T02:00:10;7.00;6.00;6.00
62547;PMS7003;48602;45.192;5.722;2022-08-01T02:02:36;8.75;7.75;7.00
62547;PMS7003;48602;45.192;5.722;2022-08-01T02:05:04;7.00;7.00;7.00
62547;PMS7003;48602;45.192;5.722;2022-08-01T02:07:30;7.00;7.00;6.00
62547;PMS7003;48602;45.192;5.722;2022-08-01T02:09:57;9.00;8.00;6.25
62547;PMS7003;48602;45.192;5.722;2022-08-01T02:12:25;8.00;8.00;7.00
62547;PMS7003;48602;45.192;5.722;2022-08-01T02:14:52;9.75;9.75;8.25
62547;PMS7003;48602;45.192;5.722;2022-08-01T02:17:19;7.00;7.00;7.00
62547;PMS7003;48602;45.192;5.722;2022-08-01T02:19:48;10.00;9.00;8.00
62547;PMS7003;48602;45.192;5.722;2022-08-01T02:22:26;8.00;8.00;7.00
62547;PMS7003;48602;45.192;5.722;2022-08-01T02:25:13;8.00;8.00;7.50
62547;PMS7003;48602;45.192;5.722;2022-08-01T02:27:45;8.00;8.00;7.75
62547;PMS7003;48602;45.192;5.722;2022-08-01T02:30:34;8.00;8.00;7.75
62547;PMS7003;48602;45.192;5.722;2022-08-01T02:33:12;8.00;8.00;7.00
62547;PMS7003;48602;45.192;5.722;2022-08-01T02:35:42;9.00;9.00;8.00
62547;PMS7003;48602;45.192;5.722;2022-08-01T02:38:11;6.75;5.50;5.50
62547;PMS7003;48602;45.192;5.722;2022-08-01T02:40:40;9.00;8.75;8.00
62547;PMS7003;48602;45.192;5.722;2022-08-01T02:43:10;7.25;7.25;6.50
62547;PMS7003;48602;45.192;5.722;2022-08-01T02:45:41;6.75;6.75;6.75
62547;PMS7003;48602;45.192;5.722;2022-08-01T02:48:11;8.00;8.00;7.75
62547;PMS7003;48602;45.192;5.722;2022-08-01T02:50:39;8.00;7.00;7.00
62547;PMS7003;48602;45.192;5.722;2022-08-01T02:53:08;6.75;6.75;5.75
62547;PMS7003;48602;45.192;5.722;2022-08-01T02:55:36;5.25;5.00;4.25
62547;PMS7003;48602;45.192;5.722;2022-08-01T02:58:04;6.75;6.75;6.25
62547;PMS7003;48602;45.192;5.722;2022-08-01T03:00:32;8.50;8.50;8.00
62547;PMS7003;48602;45.192;5.722;2022-08-01T03:02:59;8.25;8.25;8.00
62547;PMS7003;48602;45.192;5.722;2022-08-01T03:05:26;8.20;8.20;7.40
62547;PMS7003;48602;45.192;5.722;2022-08-01T03:07:52;7.50;7.50;7.00
62547;PMS7003;48602;45.192;5.722;2022-08-01T03:10:20;8.00;7.50;7.00
62547;PMS7003;48602;45.192;5.722;2022-08-01T03:12:46;8.50;7.50;7.25
62547;PMS7003;48602;45.192;5.722;2022-08-01T03:15:14;9.00;9.00;8.00
62547;PMS7003;48602;45.192;5.722;2022-08-01T03:17:42;7.00;7.00;6.00
62547;PMS7003;48602;45.192;5.722;2022-08-01T03:20:10;9.00;9.00;6.75
62547;PMS7003;48602;45.192;5.722;2022-08-01T03:22:39;9.25;9.25;7.75
62547;PMS7003;48602;45.192;5.722;2022-08-01T03:25:07;8.00;8.00;7.00
62547;PMS7003;48602;45.192;5.722;2022-08-01T03:27:33;9.50;9.50;9.00
62547;PMS7003;48602;45.192;5.722;2022-08-01T03:30:02;9.50;9.50;8.25
62547;PMS7003;48602;45.192;5.722;2022-08-01T03:32:30;11.00;10.00;9.00
62547;PMS7003;48602;45.192;5.722;2022-08-01T03:34:56;10.00;9.75;8.25
62547;PMS7003;48602;45.192;5.722;2022-08-01T03:37:26;9.00;9.00;8.50
62547;PMS7003;48602;45.192;5.722;2022-08-01T03:40:02;9.75;9.75;8.75
62547;PMS7003;48602;45.192;5.722;2022-08-01T03:42:33;11.25;10.25;7.50
62547;PMS7003;48602;45.192;5.722;2022-08-01T03:45:03;10.00;10.00;8.75
62547;PMS7003;48602;45.192;5.722;2022-08-01T03:47:34;10.50;9.25;7.75
62547;PMS7003;48602;45.192;5.722;2022-08-01T03:50:02;10.00;9.50;8.50
62547;PMS7003;48602;45.192;5.722;2022-08-01T03:52:29;8.25;7.50;7.00
62547;PMS7003;48602;45.192;5.722;2022-08-01T03:54:58;9.00;8.50;7.50
62547;PMS7003;48602;45.192;5.722;2022-08-01T03:57:27;8.00;6.75;6.25
62547;PMS7003;48602;45.192;5.722;2022-08-01T03:59:53;9.00;8.25;7.75
62547;PMS7003;48602;45.192;5.722;2022-08-01T04:02:21;5.00;5.00;4.75
62547;PMS7003;48602;45.192;5.722;2022-08-01T04:04:47;10.50;9.75;9.00
62547;PMS7003;48602;45.192;5.722;2022-08-01T04:07:26;8.50;8.50;8.25
62547;PMS7003;48602;45.192;5.722;2022-08-01T04:09:54;8.75;8.75;8.00
62547;PMS7003;48602;45.192;5.722;2022-08-01T04:12:20;12.75;9.00;8.00
62547;PMS7003;48602;45.192;5.722;2022-08-01T04:14:46;7.00;7.00;6.50
62547;PMS7003;48602;45.192;5.722;2022-08-01T04:17:12;10.00;10.00;9.00
62547;PMS7003;48602;45.192;5.722;2022-08-01T04:19:38;13.50;11.75;10.00
62547;PMS7003;48602;45.192;5.722;2022-08-01T04:22:04;13.75;11.00;9.00
62547;PMS7003;48602;45.192;5.722;2022-08-01T04:24:30;11.25;11.25;10.25
62547;PMS7003;48602;45.192;5.722;2022-08-01T04:26:59;11.25;11.25;10.00
62547;PMS7003;48602;45.192;5.722;2022-08-01T04:29:26;11.50;11.50;10.50
62547;PMS7003;48602;45.192;5.722;2022-08-01T04:31:54;10.00;9.25;8.00
62547;PMS7003;48602;45.192;5.722;2022-08-01T04:34:22;10.25;9.50;8.25
62547;PMS7003;48602;45.192;5.722;2022-08-01T04:36:51;10.00;10.00;9.25
62547;PMS7003;48602;45.192;5.722;2022-08-01T04:39:19;10.25;10.25;9.00
62547;PMS7003;48602;45.192;5.722;2022-08-01T04:41:48;11.50;9.25;8.50
62547;PMS7003;48602;45.192;5.722;2022-08-01T04:44:16;9.00;9.00;8.75
62547;PMS7003;48602;45.192;5.722;2022-08-01T04:46:42;8.25;8.25;7.75
62547;PMS7003;48602;45.192;5.722;2022-08-01T04:49:08;9.25;9.00;8.50
62547;PMS7003;48602;45.192;5.722;2022-08-01T04:51:36;10.50;9.00;8.00
62547;PMS7003;48602;45.192;5.722;2022-08-01T04:54:14;13.50;12.25;10.50
62547;PMS7003;48602;45.192;5.722;2022-08-01T04:56:39;9.75;9.75;9.00
62547;PMS7003;48602;45.192;5.722;2022-08-01T04:59:06;9.75;9.00;8.75
62547;PMS7003;48602;45.192;5.722;2022-08-01T05:01:50;10.75;10.00;9.00
62547;PMS7003;48602;45.192;5.722;2022-08-01T05:04:16;7.25;6.00;6.00
62547;PMS7003;48602;45.192;5.722;2022-08-01T05:06:41;11.00;11.00;11.00
62547;PMS7003;48602;45.192;5.722;2022-08-01T05:09:06;11.25;11.00;9.75
62547;PMS7003;48602;45.192;5.722;2022-08-01T05:11:32;10.00;10.00;9.00
62547;PMS7003;48602;45.192;5.722;2022-08-01T05:13:57;12.00;10.00;8.00
62547;PMS7003;48602;45.192;5.722;2022-08-01T05:16:22;10.50;9.00;8.00
62547;PMS7003;48602;45.192;5.722;2022-08-01T05:18:48;9.00;9.00;8.00
62547;PMS7003;48602;45.192;5.722;2022-08-01T05:21:13;10.25;10.25;9.50
62547;PMS7003;48602;45.192;5.722;2022-08-01T05:23:39;7.50;7.50;7.25
62547;PMS7003;48602;45.192;5.722;2022-08-01T05:26:04;11.75;10.00;9.00
62547;PMS7003;48602;45.192;5.722;2022-08-01T05:28:29;8.50;8.50;7.75
62547;PMS7003;48602;45.192;5.722;2022-08-01T05:30:55;10.75;10.75;9.75
62547;PMS7003;48602;45.192;5.722;2022-08-01T05:33:21;10.00;10.00;8.75
62547;PMS7003;48602;45.192;5.722;2022-08-01T05:35:47;10.00;10.00;8.00
62547;PMS7003;48602;45.192;5.722;2022-08-01T05:38:12;8.25;8.25;8.00
62547;PMS7003;48602;45.192;5.722;2022-08-01T05:40:37;12.50;12.50;10.75
62547;PMS7003;48602;45.192;5.722;2022-08-01T05:43:03;10.75;9.25;8.75
62547;PMS7003;48602;45.192;5.722;2022-08-01T05:45:28;9.50;9.50;9.50
62547;PMS7003;48602;45.192;5.722;2022-08-01T05:47:53;13.00;11.75;11.50
62547;PMS7003;48602;45.192;5.722;2022-08-01T05:50:19;9.50;9.50;9.00
62547;PMS7003;48602;45.192;5.722;2022-08-01T05:52:44;12.50;12.00;10.50
62547;PMS7003;48602;45.192;5.722;2022-08-01T05:55:09;12.25;12.00;11.00
62547;PMS7003;48602;45.192;5.722;2022-08-01T05:57:35;13.50;12.00;11.00
62547;PMS7003;48602;45.192;5.722;2022-08-01T06:00:00;10.50;10.50;9.50
62547;PMS7003;48602;45.192;5.722;2022-08-01T06:02:26;12.00;12.00;11.00
62547;PMS7003;48602;45.192;5.722;2022-08-01T06:04:52;11.25;11.25;10.00
62547;PMS7003;48602;45.192;5.722;2022-08-01T06:07:18;15.00;15.00;12.00
62547;PMS7003;48602;45.192;5.722;2022-08-01T06:09:43;12.50;11.00;10.00
62547;PMS7003;48602;45.192;5.722;2022-08-01T06:12:08;13.00;13.00;11.50
62547;PMS7003;48602;45.192;5.722;2022-08-01T06:14:34;12.00;10.00;9.00
62547;PMS7003;48602;45.192;5.722;2022-08-01T06:16:59;13.75;13.75;12.75
62547;PMS7003;48602;45.192;5.722;2022-08-01T06:19:24;12.25;12.25;11.75
62547;PMS7003;48602;45.192;5.722;2022-08-01T06:21:51;13.00;13.00;11.25
62547;PMS7003;48602;45.192;5.722;2022-08-01T06:24:16;11.50;11.50;10.50
62547;PMS7003;48602;45.192;5.722;2022-08-01T06:26:41;14.50;14.00;12.25
62547;PMS7003;48602;45.192;5.722;2022-08-01T06:29:07;12.25;12.25;10.75
62547;PMS7003;48602;45.192;5.722;2022-08-01T06:31:32;16.25;13.50;12.25
62547;PMS7003;48602;45.192;5.722;2022-08-01T06:33:58;16.25;14.50;11.75
62547;PMS7003;48602;45.192;5.722;2022-08-01T06:36:23;11.50;10.75;10.00
62547;PMS7003;48602;45.192;5.722;2022-08-01T06:38:50;14.50;12.75;11.75
62547;PMS7003;48602;45.192;5.722;2022-08-01T06:41:16;11.00;11.00;10.25
62547;PMS7003;48602;45.192;5.722;2022-08-01T06:43:41;15.25;13.00;11.00
62547;PMS7003;48602;45.192;5.722;2022-08-01T06:46:06;12.75;11.25;10.50
62547;PMS7003;48602;45.192;5.722;2022-08-01T06:48:32;11.50;11.50;11.00
62547;PMS7003;48602;45.192;5.722;2022-08-01T06:50:57;11.00;11.00;10.25
62547;PMS7003;48602;45.192;5.722;2022-08-01T06:53:38;11.25;11.25;10.25
62547;PMS7003;48602;45.192;5.722;2022-08-01T06:56:04;11.25;11.25;10.50
62547;PMS7003;48602;45.192;5.722;2022-08-01T06:58:30;12.00;12.00;10.75
62547;PMS7003;48602;45.192;5.722;2022-08-01T07:00:56;12.75;12.00;10.25
62547;PMS7003;48602;45.192;5.722;2022-08-01T07:03:21;13.75;11.00;9.50
62547;PMS7003;48602;45.192;5.722;2022-08-01T07:05:46;13.75;11.75;10.50
62547;PMS7003;48602;45.192;5.722;2022-08-01T07:08:12;13.00;13.00;11.25
62547;PMS7003;48602;45.192;5.722;2022-08-01T07:10:37;13.00;11.75;10.00
62547;PMS7003;48602;45.192;5.722;2022-08-01T07:13:02;12.00;12.00;10.50
62547;PMS7003;48602;45.192;5.722;2022-08-01T07:15:28;12.25;11.75;10.00
62547;PMS7003;48602;45.192;5.722;2022-08-01T07:17:53;13.25;12.25;11.00
62547;PMS7003;48602;45.192;5.722;2022-08-01T07:20:19;12.75;12.25;11.00
62547;PMS7003;48602;45.192;5.722;2022-08-01T07:22:44;12.00;11.00;10.25
62547;PMS7003;48602;45.192;5.722;2022-08-01T07:25:10;13.75;12.25;10.75
62547;PMS7003;48602;45.192;5.722;2022-08-01T07:27:35;13.50;12.50;10.50
62547;PMS7003;48602;45.192;5.722;2022-08-01T07:30:02;12.00;11.00;9.50
62547;PMS7003;48602;45.192;5.722;2022-08-01T07:32:28;13.75;11.75;10.75
62547;PMS7003;48602;45.192;5.722;2022-08-01T07:34:54;11.00;11.00;10.00
62547;PMS7003;48602;45.192;5.722;2022-08-01T07:37:19;12.50;12.50;10.75
62547;PMS7003;48602;45.192;5.722;2022-08-01T07:39:45;13.00;13.00;11.00
62547;PMS7003;48602;45.192;5.722;2022-08-01T07:42:10;11.75;11.50;9.75
62547;PMS7003;48602;45.192;5.722;2022-08-01T07:44:36;11.75;11.00;9.50
62547;PMS7003;48602;45.192;5.722;2022-08-01T07:47:01;13.50;12.00;11.00
62547;PMS7003;48602;45.192;5.722;2022-08-01T07:49:27;15.00;13.25;12.25
62547;PMS7003;48602;45.192;5.722;2022-08-01T07:51:52;11.75;10.00;9.75
62547;PMS7003;48602;45.192;5.722;2022-08-01T07:54:19;12.75;11.75;10.00
62547;PMS7003;48602;45.192;5.722;2022-08-01T07:56:44;13.00;13.00;11.25
62547;PMS7003;48602;45.192;5.722;2022-08-01T07:59:10;11.75;11.50;10.25
62547;PMS7003;48602;45.192;5.722;2022-08-01T08:01:35;14.00;14.00;13.00
62547;PMS7003;48602;45.192;5.722;2022-08-01T08:04:01;11.25;10.25;9.25
62547;PMS7003;48602;45.192;5.722;2022-08-01T08:06:27;15.00;13.00;11.25
62547;PMS7003;48602;45.192;5.722;2022-08-01T08:08:52;16.75;13.75;12.75
62547;PMS7003;48602;45.192;5.722;2022-08-01T08:11:18;13.00;13.00;11.25
62547;PMS7003;48602;45.192;5.722;2022-08-01T08:13:44;12.50;12.50;10.25
62547;PMS7003;48602;45.192;5.722;2022-08-01T08:16:09;16.00;15.50;13.50
62547;PMS7003;48602;45.192;5.722;2022-08-01T08:18:35;12.00;12.00;11.75
62547;PMS7003;48602;45.192;5.722;2022-08-01T08:21:00;14.25;11.75;11.50
62547;PMS7003;48602;45.192;5.722;2022-08-01T08:23:26;12.00;12.00;10.50
62547;PMS7003;48602;45.192;5.722;2022-08-01T08:26:10;11.75;11.75;10.50
62547;PMS7003;48602;45.192;5.722;2022-08-01T08:28:36;20.25;15.50;13.50
62547;PMS7003;48602;45.192;5.722;2022-08-01T08:31:01;11.50;11.50;11.00
62547;PMS7003;48602;45.192;5.722;2022-08-01T08:33:26;12.50;11.50;9.75
62547;PMS7003;48602;45.192;5.722;2022-08-01T08:35:52;10.25;10.25;9.25
62547;PMS7003;48602;45.192;5.722;2022-08-01T08:38:19;12.00;12.00;11.00
62547;PMS7003;48602;45.192;5.722;2022-08-01T08:40:44;12.00;12.00;11.00
62547;PMS7003;48602;45.192;5.722;2022-08-01T08:43:10;12.25;12.25;11.00
62547;PMS7003;48602;45.192;5.722;2022-08-01T08:45:36;12.50;10.25;10.00
62547;PMS7003;48602;45.192;5.722;2022-08-01T08:48:02;14.50;14.50;12.50
62547;PMS7003;48602;45.192;5.722;2022-08-01T08:50:30;13.00;11.75;11.25
62547;PMS7003;48602;45.192;5.722;2022-08-01T08:52:56;12.00;12.00;11.25
62547;PMS7003;48602;45.192;5.722;2022-08-01T08:55:26;12.50;12.50;10.50
62547;PMS7003;48602;45.192;5.722;2022-08-01T08:57:52;13.75;12.75;12.00
62547;PMS7003;48602;45.192;5.722;2022-08-01T09:00:19;13.50;13.50;12.25
62547;PMS7003;48602;45.192;5.722;2022-08-01T09:02:45;15.50;14.00;11.50
62547;PMS7003;48602;45.192;5.722;2022-08-01T09:05:12;13.00;13.00;11.25
62547;PMS7003;48602;45.192;5.722;2022-08-01T09:07:38;12.75;12.75;11.50
62547;PMS7003;48602;45.192;5.722;2022-08-01T09:10:04;14.00;14.00;13.00
62547;PMS7003;48602;45.192;5.722;2022-08-01T09:12:30;14.00;13.00;12.00
62547;PMS7003;48602;45.192;5.722;2022-08-01T09:14:56;11.75;11.75;10.75
62547;PMS7003;48602;45.192;5.722;2022-08-01T09:17:22;13.50;12.50;11.25
62547;PMS7003;48602;45.192;5.722;2022-08-01T09:19:49;12.00;11.25;10.00
62547;PMS7003;48602;45.192;5.722;2022-08-01T09:22:17;13.00;13.00;11.00
62547;PMS7003;48602;45.192;5.722;2022-08-01T09:27:34;10.75;10.75;10.00
62547;PMS7003;48602;45.192;5.722;2022-08-01T09:30:07;11.25;11.00;10.00
62547;PMS7003;48602;45.192;5.722;2022-08-01T09:32:35;11.25;11.25;10.25
62547;PMS7003;48602;45.192;5.722;2022-08-01T09:35:43;10.75;10.75;10.00
62547;PMS7003;48602;45.192;5.722;2022-08-01T09:38:20;10.00;10.00;9.00
62547;PMS7003;48602;45.192;5.722;2022-08-01T09:43:23;11.75;11.75;11.00
62547;PMS7003;48602;45.192;5.722;2022-08-01T09:45:51;10.75;10.00;9.25
62547;PMS7003;48602;45.192;5.722;2022-08-01T09:48:17;11.75;11.75;11.00
62547;PMS7003;48602;45.192;5.722;2022-08-01T09:50:43;11.50;10.75;9.75
62547;PMS7003;48602;45.192;5.722;2022-08-01T09:53:11;11.50;10.50;9.50
62547;PMS7003;48602;45.192;5.722;2022-08-01T09:55:37;11.00;10.00;10.00
62547;PMS7003;48602;45.192;5.722;2022-08-01T09:58:04;9.75;9.75;8.50
62547;PMS7003;48602;45.192;5.722;2022-08-01T10:00:30;11.00;10.25;9.00
62547;PMS7003;48602;45.192;5.722;2022-08-01T10:03:00;9.50;9.50;7.50
62547;PMS7003;48602;45.192;5.722;2022-08-01T10:05:44;9.00;9.00;8.00
62547;PMS7003;48602;45.192;5.722;2022-08-01T10:08:10;9.50;9.50;9.25
62547;PMS7003;48602;45.192;5.722;2022-08-01T10:10:37;10.00;10.00;9.00
62547;PMS7003;48602;45.192;5.722;2022-08-01T10:13:03;10.75;10.50;10.00
62547;PMS7003;48602;45.192;5.722;2022-08-01T10:15:29;8.00;8.00;7.25
62547;PMS7003;48602;45.192;5.722;2022-08-01T10:17:57;10.00;10.00;8.25
62547;PMS7003;48602;45.192;5.722;2022-08-01T10:20:26;8.00;8.00;7.00
62547;PMS7003;48602;45.192;5.722;2022-08-01T10:22:53;11.25;11.00;9.75
62547;PMS7003;48602;45.192;5.722;2022-08-01T10:25:20;9.00;9.00;8.00
62547;PMS7003;48602;45.192;5.722;2022-08-01T10:27:48;7.75;7.50;6.50
62547;PMS7003;48602;45.192;5.722;2022-08-01T10:30:14;7.00;7.00;7.00
62547;PMS7003;48602;45.192;5.722;2022-08-01T10:32:40;9.00;8.25;8.25
62547;PMS7003;48602;45.192;5.722;2022-08-01T10:35:07;7.50;7.50;7.25
62547;PMS7003;48602;45.192;5.722;2022-08-01T10:37:34;9.00;9.00;8.00
62547;PMS7003;48602;45.192;5.722;2022-08-01T10:40:00;9.75;9.75;8.00
62547;PMS7003;48602;45.192;5.722;2022-08-01T10:42:26;7.00;7.00;5.75
62547;PMS7003;48602;45.192;5.722;2022-08-01T10:44:52;8.00;6.50;6.00
62547;PMS7003;48602;45.192;5.722;2022-08-01T10:47:32;6.75;6.75;6.00
62547;PMS7003;48602;45.192;5.722;2022-08-01T10:53:13;8.25;7.50;7.25
62547;PMS7003;48602;45.192;5.722;2022-08-01T10:55:58;8.00;6.50;6.25
62547;PMS7003;48602;45.192;5.722;2022-08-01T10:58:35;8.00;8.00;6.80
62547;PMS7003;48602;45.192;5.722;2022-08-01T11:06:23;6.25;6.00;5.00
62547;PMS7003;48602;45.192;5.722;2022-08-01T11:08:51;6.80;6.80;6.60
62547;PMS7003;48602;45.192;5.722;2022-08-01T11:11:18;6.25;5.50;5.25
62547;PMS7003;48602;45.192;5.722;2022-08-01T11:16:51;7.25;7.00;6.00
62547;PMS7003;48602;45.192;5.722;2022-08-01T11:19:17;5.75;5.75;5.25
62547;PMS7003;48602;45.192;5.722;2022-08-01T11:24:53;9.50;8.00;6.75
62547;PMS7003;48602;45.192;5.722;2022-08-01T11:27:24;6.50;6.00;5.25
62547;PMS7003;48602;45.192;5.722;2022-08-01T11:32:33;6.25;5.75;4.75
62547;PMS7003;48602;45.192;5.722;2022-08-01T11:34:59;6.50;6.25;5.50
62547;PMS7003;48602;45.192;5.722;2022-08-01T11:37:25;5.25;5.25;5.25
62547;PMS7003;48602;45.192;5.722;2022-08-01T11:42:39;10.75;7.25;5.75
62547;PMS7003;48602;45.192;5.722;2022-08-01T11:45:05;7.00;6.00;5.00
62547;PMS7003;48602;45.192;5.722;2022-08-01T11:50:42;6.00;6.00;5.25
62547;PMS7003;48602;45.192;5.722;2022-08-01T11:53:08;3.75;3.75;3.25
62547;PMS7003;48602;45.192;5.722;2022-08-01T11:55:33;6.00;6.00;6.00
62547;PMS7003;48602;45.192;5.722;2022-08-01T11:58:03;5.00;5.00;4.75
62547;PMS7003;48602;45.192;5.722;2022-08-01T12:00:31;7.00;6.00;6.00
62547;PMS7003;48602;45.192;5.722;2022-08-01T12:05:25;5.25;4.50;4.25
62547;PMS7003;48602;45.192;5.722;2022-08-01T12:07:53;5.00;5.00;4.75
62547;PMS7003;48602;45.192;5.722;2022-08-01T12:10:20;5.00;5.00;5.00
62547;PMS7003;48602;45.192;5.722;2022-08-01T12:12:48;4.75;4.75;4.50
62547;PMS7003;48602;45.192;5.722;2022-08-01T12:15:14;3.25;3.25;3.25
62547;PMS7003;48602;45.192;5.722;2022-08-01T12:17:40;4.50;4.50;4.00
62547;PMS7003;48602;45.192;5.722;2022-08-01T12:20:08;6.50;6.50;5.75
62547;PMS7003;48602;45.192;5.722;2022-08-01T12:22:35;6.75;6.75;6.25
62547;PMS7003;48602;45.192;5.722;2022-08-01T12:25:05;4.25;4.00;3.00
62547;PMS7003;48602;45.192;5.722;2022-08-01T12:27:32;4.25;4.25;4.25
62547;PMS7003;48602;45.192;5.722;2022-08-01T12:29:58;5.00;5.00;5.00
62547;PMS7003;48602;45.192;5.722;2022-08-01T12:35:01;4.00;4.00;4.00
62547;PMS7003;48602;45.192;5.722;2022-08-01T12:37:39;4.75;3.75;3.00
62547;PMS7003;48602;45.192;5.722;2022-08-01T12:42:44;4.25;4.25;4.00
62547;PMS7003;48602;45.192;5.722;2022-08-01T12:45:15;5.50;5.50;4.50
62547;PMS7003;48602;45.192;5.722;2022-08-01T12:47:43;5.00;5.00;5.00
62547;PMS7003;48602;45.192;5.722;2022-08-01T12:50:11;4.00;4.00;4.00
62547;PMS7003;48602;45.192;5.722;2022-08-01T12:52:39;5.25;5.25;5.25
62547;PMS7003;48602;45.192;5.722;2022-08-01T12:55:09;5.75;5.00;5.00
62547;PMS7003;48602;45.192;5.722;2022-08-01T12:57:36;6.00;5.00;4.75
62547;PMS7003;48602;45.192;5.722;2022-08-01T13:00:13;4.00;4.00;4.00
62547;PMS7003;48602;45.192;5.722;2022-08-01T13:02:39;4.00;4.00;4.00
62547;PMS7003;48602;45.192;5.722;2022-08-01T13:05:05;5.00;5.00;4.50
62547;PMS7003;48602;45.192;5.722;2022-08-01T13:07:48;5.00;5.00;4.75
62547;PMS7003;48602;45.192;5.722;2022-08-01T13:10:23;4.75;3.50;3.00
62547;PMS7003;48602;45.192;5.722;2022-08-01T13:12:52;3.00;3.00;3.00
62547;PMS7003;48602;45.192;5.722;2022-08-01T13:15:29;5.00;5.00;4.50
62547;PMS7003;48602;45.192;5.722;2022-08-01T13:17:57;4.00;3.25;3.00
62547;PMS7003;48602;45.192;5.722;2022-08-01T13:22:49;4.00;4.00;4.00
62547;PMS7003;48602;45.192;5.722;2022-08-01T13:25:15;5.50;4.25;4.00
62547;PMS7003;48602;45.192;5.722;2022-08-01T13:27:41;4.00;3.00;2.75
62547;PMS7003;48602;45.192;5.722;2022-08-01T13:30:13;4.00;4.00;3.50
62547;PMS7003;48602;45.192;5.722;2022-08-01T13:32:40;4.00;4.00;4.00
62547;PMS7003;48602;45.192;5.722;2022-08-01T13:35:08;5.00;2.25;2.25
62547;PMS7003;48602;45.192;5.722;2022-08-01T13:37:37;4.00;3.00;3.00
62547;PMS7003;48602;45.192;5.722;2022-08-01T13:40:05;3.00;3.00;2.00
62547;PMS7003;48602;45.192;5.722;2022-08-01T13:42:31;3.75;3.75;3.25
62547;PMS7003;48602;45.192;5.722;2022-08-01T13:44:57;4.00;2.00;2.00
62547;PMS7003;48602;45.192;5.722;2022-08-01T13:47:22;4.00;4.00;4.00
62547;PMS7003;48602;45.192;5.722;2022-08-01T13:49:48;6.00;3.00;2.50
62547;PMS7003;48602;45.192;5.722;2022-08-01T13:52:13;4.00;4.00;3.50
62547;PMS7003;48602;45.192;5.722;2022-08-01T13:54:39;3.00;3.00;3.00
62547;PMS7003;48602;45.192;5.722;2022-08-01T13:57:04;2.50;2.50;2.00
62547;PMS7003;48602;45.192;5.722;2022-08-01T13:59:29;3.00;3.00;3.00
62547;PMS7003;48602;45.192;5.722;2022-08-01T14:01:55;4.00;3.00;2.75
62547;PMS7003;48602;45.192;5.722;2022-08-01T14:04:20;3.50;3.50;3.00
62547;PMS7003;48602;45.192;5.722;2022-08-01T14:06:46;2.50;2.25;2.25
62547;PMS7003;48602;45.192;5.722;2022-08-01T14:09:11;2.00;2.00;1.25
62547;PMS7003;48602;45.192;5.722;2022-08-01T14:11:37;2.00;2.00;2.00
62547;PMS7003;48602;45.192;5.722;2022-08-01T14:14:03;3.75;2.00;2.00
62547;PMS7003;48602;45.192;5.722;2022-08-01T14:16:29;2.00;1.75;1.00
62547;PMS7003;48602;45.192;5.722;2022-08-01T14:18:54;3.00;2.25;2.00
62547;PMS7003;48602;45.192;5.722;2022-08-01T14:21:19;1.00;1.00;1.00
62547;PMS7003;48602;45.192;5.722;2022-08-01T14:23:45;3.00;3.00;3.00
62547;PMS7003;48602;45.192;5.722;2022-08-01T14:26:10;1.00;1.00;1.00
62547;PMS7003;48602;45.192;5.722;2022-08-01T14:28:36;1.25;1.25;1.25
62547;PMS7003;48602;45.192;5.722;2022-08-01T14:31:03;3.00;3.00;3.00
62547;PMS7003;48602;45.192;5.722;2022-08-01T14:33:31;4.00;4.00;3.75
62547;PMS7003;48602;45.192;5.722;2022-08-01T14:35:56;2.00;2.00;2.00
62547;PMS7003;48602;45.192;5.722;2022-08-01T14:38:22;1.75;1.75;1.50
62547;PMS7003;48602;45.192;5.722;2022-08-01T14:40:47;0.75;0.75;0.25
62547;PMS7003;48602;45.192;5.722;2022-08-01T14:43:16;3.00;3.00;2.75
62547;PMS7003;48602;45.192;5.722;2022-08-01T14:45:45;2.00;2.00;2.00
62547;PMS7003;48602;45.192;5.722;2022-08-01T14:48:14;2.00;2.00;2.00
62547;PMS7003;48602;45.192;5.722;2022-08-01T14:50:40;2.00;2.00;1.50
62547;PMS7003;48602;45.192;5.722;2022-08-01T14:53:05;3.50;3.50;3.50
62547;PMS7003;48602;45.192;5.722;2022-08-01T14:55:31;3.75;3.50;2.50